Crystal, New Mexico
Current Conditions -  °F | °C
As of 3:53 AM on Friday 31 Oct 2014 (Local Time) from KRQE Reporting Station
Clear Clear  
Wind Chill: 32°   Ceiling: Unl
Heat Index: 32°   Visibility: 10mi
Dew Point: 13°   Wind: 0mph
Humidity: 45%   Direction: NA
Pressure: 30.33"   Gusts: NA
Location:  35.8917°N, 108.926°W
Report Text: KRQE 310953Z AUTO 00000KT 10SM CLR 00/M11 A3033 RMK AO2 SLP196 T00001106 TSNO
Loading
Personal Weather Stations






























Interactive Weather Map
Tropical Storm Tracking
New forecast layout! Learn more

10-Day Weather Forecast

Advertisements
Track Severe Weather on mobile